Time,TemperatureF,DewpointF,PressureIn,WindDirection,WindDirectionDegrees,WindSpeedMPH,WindSpeedGustMPH,Humidity,HourlyPrecipIn,Conditions,Clouds,dailyrainin,SoftwareType,DateUTC
2013-04-26 00:51:00,43.0,30.0,30.21,NW,315,0.0,1.0,62,0.00,,,0.00,TxWx,2013-04-26 04:51:00,
2013-04-26 00:56:00,42.0,29.0,30.22,NNE,22,1.0,1.0,63,0.00,,,0.00,TxWx,2013-04-26 04:56:00,
2013-04-26 01:01:00,42.0,29.0,30.22,NNE,22,1.0,1.0,63,0.00,,,0.00,TxWx,2013-04-26 05:01:00,
2013-04-26 01:07:00,42.0,30.0,30.22,NNE,22,1.0,1.0,64,0.00,,,0.00,TxWx,2013-04-26 05:07:00,
2013-04-26 01:12:00,42.0,30.0,30.22,NNW,337,1.0,1.0,65,0.00,,,0.00,TxWx,2013-04-26 05:12:00,
2013-04-26 01:17:00,41.0,30.0,30.22,NNW,337,2.0,2.0,66,0.00,,,0.00,TxWx,2013-04-26 05:17:00,
2013-04-26 01:23:00,41.0,30.0,30.22,West,270,1.0,2.0,67,0.00,,,0.00,TxWx,2013-04-26 05:23:00,
2013-04-26 01:28:00,41.0,30.0,30.22,SSE,157,1.0,1.0,68,0.00,,,0.00,TxWx,2013-04-26 05:28:00,
2013-04-26 01:33:00,41.0,30.0,30.22,SSW,202,1.0,1.0,69,0.00,,,0.00,TxWx,2013-04-26 05:33:00,
2013-04-26 01:38:00,41.0,31.0,30.21,ENE,67,1.0,1.0,70,0.00,,,0.00,TxWx,2013-04-26 05:38:00,
2013-04-26 01:43:00,41.0,31.0,30.21,South,180,0.0,1.0,70,0.00,,,0.00,TxWx,2013-04-26 05:43:00,
2013-04-26 01:48:00,41.0,32.0,30.21,ESE,112,0.0,0.0,71,0.00,,,0.00,TxWx,2013-04-26 05:48:00,
2013-04-26 01:54:00,41.0,32.0,30.21,South,180,0.0,1.0,72,0.00,,,0.00,TxWx,2013-04-26 05:54:00,
2013-04-26 01:59:00,41.0,33.0,30.21,SSW,202,1.0,1.0,72,0.00,,,0.00,TxWx,2013-04-26 05:59:00,
2013-04-26 02:04:00,41.0,33.0,30.22,ENE,67,2.0,3.0,72,0.00,,,0.00,TxWx,2013-04-26 06:04:00,
2013-04-26 02:10:00,41.0,33.0,30.22,WSW,247,0.0,1.0,73,0.00,,,0.00,TxWx,2013-04-26 06:10:00,
2013-04-26 02:15:00,41.0,33.0,30.22,NNE,22,2.0,2.0,74,0.00,,,0.00,TxWx,2013-04-26 06:15:00,
2013-04-26 02:20:00,41.0,33.0,30.22,WNW,292,0.0,0.0,74,0.00,,,0.00,TxWx,2013-04-26 06:20:00,
2013-04-26 02:25:00,41.0,33.0,30.22,West,270,0.0,1.0,74,0.00,,,0.00,TxWx,2013-04-26 06:25:00,
2013-04-26 02:30:00,42.0,34.0,30.22,WSW,247,0.0,0.0,74,0.00,,,0.00,TxWx,2013-04-26 06:30:00,
2013-04-26 02:36:00,42.0,34.0,30.21,West,270,1.0,1.0,74,0.00,,,0.00,TxWx,2013-04-26 06:36:00,
2013-04-26 02:41:00,42.0,34.0,30.21,NNE,22,3.0,3.0,74,0.00,,,0.00,TxWx,2013-04-26 06:41:00,
2013-04-26 02:46:00,41.0,33.0,30.22,WNW,292,0.0,1.0,74,0.00,,,0.00,TxWx,2013-04-26 06:46:00,
2013-04-26 02:51:00,41.0,33.0,30.21,ENE,67,1.0,1.0,74,0.00,,,0.00,TxWx,2013-04-26 06:51:00,
2013-04-26 02:57:00,41.0,33.0,30.22,WNW,292,0.0,0.0,74,0.00,,,0.00,TxWx,2013-04-26 06:57:00,
2013-04-26 03:02:00,40.0,32.0,30.22,North,0,1.0,2.0,74,0.00,,,0.00,TxWx,2013-04-26 07:02:00,
2013-04-26 03:07:00,40.0,32.0,30.22,NNW,337,1.0,2.0,74,0.00,,,0.00,TxWx,2013-04-26 07:07:00,
2013-04-26 03:12:00,40.0,32.0,30.22,West,270,1.0,1.0,74,0.00,,,0.00,TxWx,2013-04-26 07:12:00,
2013-04-26 03:18:00,40.0,32.0,30.22,NW,315,2.0,2.0,74,0.00,,,0.00,TxWx,2013-04-26 07:18:00,
2013-04-26 03:23:00,41.0,34.0,30.22,West,270,2.0,2.0,75,0.00,,,0.00,TxWx,2013-04-26 07:23:00,
2013-04-26 03:28:00,40.0,32.0,30.22,ENE,67,0.0,1.0,74,0.00,,,0.00,TxWx,2013-04-26 07:28:00,
2013-04-26 03:33:00,40.0,33.0,30.23,ENE,67,1.0,1.0,75,0.00,,,0.00,TxWx,2013-04-26 07:33:00,
2013-04-26 03:39:00,40.0,33.0,30.23,WSW,247,0.0,0.0,75,0.00,,,0.00,TxWx,2013-04-26 07:39:00,
2013-04-26 03:44:00,39.0,31.0,30.23,North,0,1.0,1.0,76,0.00,,,0.00,TxWx,2013-04-26 07:44:00,
2013-04-26 03:49:00,39.0,31.0,30.23,NNE,22,1.0,2.0,76,0.00,,,0.00,TxWx,2013-04-26 07:49:00,
2013-04-26 03:54:00,39.0,32.0,30.23,WNW,292,0.0,0.0,76,0.00,,,0.00,TxWx,2013-04-26 07:54:00,
2013-04-26 03:59:00,39.0,32.0,30.23,NNE,22,1.0,1.0,76,0.00,,,0.00,TxWx,2013-04-26 07:59:00,
2013-04-26 04:05:00,39.0,32.0,30.24,NNW,337,1.0,1.0,77,0.00,,,0.00,TxWx,2013-04-26 08:05:00,
2013-04-26 04:10:00,39.0,32.0,30.24,NNW,337,1.0,2.0,77,0.00,,,0.00,TxWx,2013-04-26 08:10:00,
2013-04-26 04:15:00,39.0,32.0,30.24,NW,315,0.0,1.0,77,0.00,,,0.00,TxWx,2013-04-26 08:15:00,
2013-04-26 04:20:00,38.0,30.0,30.24,NNE,22,3.0,3.0,77,0.00,,,0.00,TxWx,2013-04-26 08:20:00,
2013-04-26 04:25:00,38.0,30.0,30.25,WNW,292,0.0,1.0,77,0.00,,,0.00,TxWx,2013-04-26 08:25:00,
2013-04-26 04:30:00,38.0,31.0,30.24,SSW,202,0.0,1.0,78,0.00,,,0.00,TxWx,2013-04-26 08:30:00,
2013-04-26 04:35:00,38.0,31.0,30.25,West,270,0.0,1.0,78,0.00,,,0.00,TxWx,2013-04-26 08:35:00,
2013-04-26 04:40:00,38.0,31.0,30.25,NNE,22,0.0,0.0,78,0.00,,,0.00,TxWx,2013-04-26 08:40:00,
2013-04-26 04:45:00,38.0,31.0,30.25,North,0,1.0,1.0,78,0.00,,,0.00,TxWx,2013-04-26 08:45:00,
2013-04-26 04:50:00,38.0,31.0,30.25,North,0,0.0,1.0,78,0.00,,,0.00,TxWx,2013-04-26 08:50:00,
2013-04-26 04:56:00,38.0,31.0,30.26,NE,45,0.0,0.0,79,0.00,,,0.00,TxWx,2013-04-26 08:56:00,
2013-04-26 05:01:00,38.0,31.0,30.26,NW,315,1.0,1.0,79,0.00,,,0.00,TxWx,2013-04-26 09:01:00,
2013-04-26 05:06:00,38.0,32.0,30.26,WSW,247,0.0,1.0,79,0.00,,,0.00,TxWx,2013-04-26 09:06:00,
2013-04-26 05:11:00,38.0,32.0,30.26,West,270,0.0,0.0,79,0.00,,,0.00,TxWx,2013-04-26 09:11:00,
2013-04-26 05:17:00,38.0,32.0,30.26,WNW,292,1.0,1.0,79,0.00,,,0.00,TxWx,2013-04-26 09:17:00,
2013-04-26 05:22:00,37.0,30.0,30.26,ESE,112,1.0,1.0,79,0.00,,,0.00,TxWx,2013-04-26 09:22:00,
2013-04-26 05:27:00,37.0,30.0,30.27,ENE,67,1.0,1.0,79,0.00,,,0.00,TxWx,2013-04-26 09:27:00,
2013-04-26 05:33:00,37.0,30.0,30.28,NNE,22,1.0,1.0,80,0.00,,,0.00,TxWx,2013-04-26 09:33:00,
2013-04-26 05:38:00,37.0,30.0,30.28,NE,45,0.0,0.0,80,0.00,,,0.00,TxWx,2013-04-26 09:38:00,
2013-04-26 05:44:00,38.0,33.0,30.29,SSW,202,1.0,1.0,81,0.00,,,0.00,TxWx,2013-04-26 09:44:00,
2013-04-26 05:49:00,39.0,34.0,30.29,South,180,2.0,3.0,81,0.00,,,0.00,TxWx,2013-04-26 09:49:00,
2013-04-26 05:54:00,39.0,34.0,30.30,NE,45,2.0,3.0,81,0.00,,,0.00,TxWx,2013-04-26 09:54:00,
2013-04-26 05:59:00,38.0,33.0,30.30,SSW,202,3.0,3.0,81,0.00,,,0.00,TxWx,2013-04-26 09:59:00,
2013-04-26 06:04:00,39.0,34.0,30.30,South,180,3.0,3.0,81,0.00,,,0.00,TxWx,2013-04-26 10:04:00,
2013-04-26 06:10:00,39.0,34.0,30.31,South,180,4.0,6.0,82,0.00,,,0.00,TxWx,2013-04-26 10:10:00,
2013-04-26 06:15:00,40.0,35.0,30.31,SSE,157,3.0,5.0,82,0.00,,,0.00,TxWx,2013-04-26 10:15:00,
2013-04-26 06:20:00,40.0,35.0,30.31,East,90,1.0,1.0,82,0.00,,,0.00,TxWx,2013-04-26 10:20:00,
2013-04-26 06:25:00,39.0,34.0,30.31,WNW,292,1.0,1.0,82,0.00,,,0.00,TxWx,2013-04-26 10:25:00,
2013-04-26 06:30:00,39.0,34.0,30.32,ENE,67,1.0,1.0,82,0.00,,,0.00,TxWx,2013-04-26 10:30:00,
2013-04-26 06:35:00,39.0,34.0,30.32,SSW,202,2.0,2.0,83,0.00,,,0.00,TxWx,2013-04-26 10:35:00,
2013-04-26 06:40:00,39.0,34.0,30.33,SSE,157,2.0,2.0,83,0.00,,,0.00,TxWx,2013-04-26 10:40:00,
2013-04-26 06:46:00,40.0,35.0,30.33,East,90,3.0,3.0,84,0.00,,,0.00,TxWx,2013-04-26 10:46:00,
2013-04-26 06:51:00,40.0,35.0,30.33,South,180,4.0,5.0,84,0.00,,,0.00,TxWx,2013-04-26 10:51:00,
2013-04-26 06:56:00,41.0,36.0,30.33,SSE,157,3.0,4.0,84,0.00,,,0.00,TxWx,2013-04-26 10:56:00,
2013-04-26 07:01:00,41.0,36.0,30.33,South,180,6.0,6.0,83,0.00,,,0.00,TxWx,2013-04-26 11:01:00,
2013-04-26 07:07:00,42.0,37.0,30.34,SSW,202,6.0,6.0,83,0.00,,,0.00,TxWx,2013-04-26 11:07:00,
2013-04-26 07:12:00,42.0,37.0,30.34,SSW,202,5.0,6.0,81,0.00,,,0.00,TxWx,2013-04-26 11:12:00,
2013-04-26 07:17:00,43.0,37.0,30.34,South,180,5.0,5.0,80,0.00,,,0.00,TxWx,2013-04-26 11:17:00,
2013-04-26 07:22:00,43.0,37.0,30.34,South,180,4.0,5.0,78,0.00,,,0.00,TxWx,2013-04-26 11:22:00,
2013-04-26 07:27:00,44.0,37.0,30.34,South,180,4.0,4.0,77,0.00,,,0.00,TxWx,2013-04-26 11:27:00,
2013-04-26 07:33:00,45.0,37.0,30.34,SSE,157,7.0,7.0,75,0.00,,,0.00,TxWx,2013-04-26 11:33:00,
2013-04-26 07:38:00,45.0,37.0,30.35,South,180,8.0,10.0,73,0.00,,,0.00,TxWx,2013-04-26 11:38:00,
2013-04-26 07:43:00,46.0,37.0,30.35,SE,135,7.0,7.0,71,0.00,,,0.00,TxWx,2013-04-26 11:43:00,
2013-04-26 07:48:00,46.0,37.0,30.35,South,180,6.0,8.0,70,0.00,,,0.00,TxWx,2013-04-26 11:48:00,
2013-04-26 07:53:00,46.0,36.0,30.35,South,180,5.0,8.0,69,0.00,,,0.00,TxWx,2013-04-26 11:53:00,
2013-04-26 07:59:00,46.0,36.0,30.36,East,90,1.0,4.0,69,0.00,,,0.00,TxWx,2013-04-26 11:59:00,
2013-04-26 08:04:00,46.0,36.0,30.36,South,180,8.0,8.0,68,0.00,,,0.00,TxWx,2013-04-26 12:04:00,
2013-04-26 08:09:00,47.0,37.0,30.36,SSE,157,7.0,8.0,68,0.00,,,0.00,TxWx,2013-04-26 12:09:00,
2013-04-26 08:15:00,47.0,37.0,30.36,SSE,157,8.0,8.0,67,0.00,,,0.00,TxWx,2013-04-26 12:15:00,
2013-04-26 08:20:00,47.0,37.0,30.36,South,180,11.0,11.0,67,0.00,,,0.00,TxWx,2013-04-26 12:20:00,
2013-04-26 08:25:00,48.0,37.0,30.36,SSE,157,6.0,6.0,67,0.00,,,0.00,TxWx,2013-04-26 12:25:00,
2013-04-26 08:30:00,48.0,37.0,30.36,South,180,7.0,7.0,66,0.00,,,0.00,TxWx,2013-04-26 12:30:00,
2013-04-26 08:36:00,48.0,37.0,30.36,SSE,157,3.0,4.0,66,0.00,,,0.00,TxWx,2013-04-26 12:36:00,
2013-04-26 08:41:00,49.0,38.0,30.36,SSW,202,8.0,9.0,66,0.00,,,0.00,TxWx,2013-04-26 12:41:00,
2013-04-26 08:46:00,49.0,38.0,30.36,South,180,8.0,8.0,65,0.00,,,0.00,TxWx,2013-04-26 12:46:00,
2013-04-26 08:52:00,50.0,38.0,30.36,SSE,157,6.0,10.0,64,0.00,,,0.00,TxWx,2013-04-26 12:52:00,
2013-04-26 08:57:00,51.0,39.0,30.36,SSW,202,5.0,5.0,63,0.00,,,0.00,TxWx,2013-04-26 12:57:00,
2013-04-26 09:02:00,51.0,38.0,30.36,SSE,157,6.0,9.0,62,0.00,,,0.00,TxWx,2013-04-26 13:02:00,
2013-04-26 09:07:00,52.0,39.0,30.37,South,180,10.0,10.0,61,0.00,,,0.00,TxWx,2013-04-26 13:07:00,
2013-04-26 09:12:00,52.0,39.0,30.36,South,180,7.0,7.0,61,0.00,,,0.00,TxWx,2013-04-26 13:12:00,
2013-04-26 09:18:00,53.0,39.0,30.37,SSW,202,6.0,8.0,60,0.00,,,0.00,TxWx,2013-04-26 13:18:00,
2013-04-26 09:23:00,52.0,38.0,30.37,South,180,12.0,13.0,60,0.00,,,0.00,TxWx,2013-04-26 13:23:00,
2013-04-26 09:28:00,53.0,39.0,30.37,WSW,247,6.0,6.0,60,0.00,,,0.00,TxWx,2013-04-26 13:28:00,
2013-04-26 09:34:00,53.0,39.0,30.37,SSE,157,6.0,8.0,59,0.00,,,0.00,TxWx,2013-04-26 13:34:00,
2013-04-26 09:39:00,53.0,39.0,30.36,SSW,202,10.0,10.0,59,0.00,,,0.00,TxWx,2013-04-26 13:39:00,
2013-04-26 09:44:00,53.0,39.0,30.37,South,180,6.0,6.0,59,0.00,,,0.00,TxWx,2013-04-26 13:44:00,
2013-04-26 09:49:00,54.0,40.0,30.36,South,180,11.0,11.0,58,0.00,,,0.00,TxWx,2013-04-26 13:49:00,
2013-04-26 09:54:00,54.0,38.0,30.36,South,180,5.0,6.0,56,0.00,,,0.00,TxWx,2013-04-26 13:54:00,
2013-04-26 10:00:00,54.0,38.0,30.36,SSE,157,6.0,9.0,56,0.00,,,0.00,TxWx,2013-04-26 14:00:00,
2013-04-26 10:05:00,54.0,38.0,30.37,SE,135,7.0,9.0,56,0.00,,,0.00,TxWx,2013-04-26 14:05:00,
2013-04-26 10:10:00,54.0,38.0,30.37,SE,135,6.0,6.0,56,0.00,,,0.00,TxWx,2013-04-26 14:10:00,
2013-04-26 10:15:00,55.0,39.0,30.37,SSE,157,10.0,12.0,55,0.00,,,0.00,TxWx,2013-04-26 14:15:00,
2013-04-26 10:20:00,56.0,39.0,30.37,SE,135,10.0,10.0,54,0.00,,,0.00,TxWx,2013-04-26 14:20:00,
2013-04-26 10:25:00,55.0,38.0,30.37,South,180,11.0,12.0,54,0.00,,,0.00,TxWx,2013-04-26 14:25:00,
2013-04-26 10:31:00,55.0,38.0,30.37,East,90,6.0,8.0,53,0.00,,,0.00,TxWx,2013-04-26 14:31:00,
2013-04-26 10:36:00,56.0,39.0,30.37,SSE,157,3.0,3.0,53,0.00,,,0.00,TxWx,2013-04-26 14:36:00,
2013-04-26 10:42:00,57.0,39.0,30.37,South,180,12.0,13.0,51,0.00,,,0.00,TxWx,2013-04-26 14:42:00,
2013-04-26 10:47:00,56.0,38.0,30.37,SE,135,11.0,11.0,51,0.00,,,0.00,TxWx,2013-04-26 14:47:00,
2013-04-26 10:52:00,56.0,38.0,30.37,SE,135,4.0,5.0,52,0.00,,,0.00,TxWx,2013-04-26 14:52:00,
2013-04-26 10:57:00,56.0,38.0,30.37,ESE,112,5.0,8.0,51,0.00,,,0.00,TxWx,2013-04-26 14:57:00,
2013-04-26 11:03:00,57.0,39.0,30.37,ESE,112,10.0,10.0,51,0.00,,,0.00,TxWx,2013-04-26 15:03:00,
2013-04-26 11:08:00,56.0,38.0,30.37,ESE,112,8.0,11.0,51,0.00,,,0.00,TxWx,2013-04-26 15:08:00,
2013-04-26 11:13:00,56.0,38.0,30.37,SE,135,6.0,8.0,51,0.00,,,0.00,TxWx,2013-04-26 15:13:00,
2013-04-26 11:18:00,56.0,38.0,30.37,South,180,5.0,10.0,51,0.00,,,0.00,TxWx,2013-04-26 15:18:00,
2013-04-26 11:23:00,56.0,38.0,30.37,SE,135,11.0,11.0,50,0.00,,,0.00,TxWx,2013-04-26 15:23:00,
2013-04-26 11:28:00,56.0,38.0,30.36,SE,135,7.0,7.0,50,0.00,,,0.00,TxWx,2013-04-26 15:28:00,
2013-04-26 11:34:00,56.0,37.0,30.36,SE,135,9.0,10.0,50,0.00,,,0.00,TxWx,2013-04-26 15:34:00,
2013-04-26 11:39:00,57.0,37.0,30.36,SE,135,5.0,5.0,48,0.00,,,0.00,TxWx,2013-04-26 15:39:00,
2013-04-26 11:44:00,58.0,38.0,30.36,SE,135,8.0,8.0,48,0.00,,,0.00,TxWx,2013-04-26 15:44:00,
2013-04-26 11:50:00,58.0,38.0,30.36,SE,135,8.0,9.0,47,0.00,,,0.00,TxWx,2013-04-26 15:50:00,
2013-04-26 11:55:00,57.0,36.0,30.36,East,90,4.0,6.0,46,0.00,,,0.00,TxWx,2013-04-26 15:55:00,
2013-04-26 12:00:00,57.0,37.0,30.35,SSW,202,6.0,10.0,47,0.00,,,0.00,TxWx,2013-04-26 16:00:00,
2013-04-26 12:05:00,57.0,37.0,30.35,South,180,8.0,11.0,47,0.00,,,0.00,TxWx,2013-04-26 16:05:00,
2013-04-26 12:10:00,58.0,37.0,30.35,SSE,157,7.0,10.0,45,0.00,,,0.00,TxWx,2013-04-26 16:10:00,
2013-04-26 12:15:00,58.0,36.0,30.35,South,180,6.0,7.0,45,0.00,,,0.00,TxWx,2013-04-26 16:15:00,
2013-04-26 12:20:00,58.0,36.0,30.35,SSE,157,14.0,16.0,44,0.00,,,0.00,TxWx,2013-04-26 16:20:00,
2013-04-26 12:25:00,58.0,36.0,30.35,East,90,5.0,8.0,44,0.00,,,0.00,TxWx,2013-04-26 16:25:00,
2013-04-26 12:30:00,58.0,36.0,30.35,South,180,6.0,11.0,43,0.00,,,0.00,TxWx,2013-04-26 16:30:00,
2013-04-26 12:35:00,59.0,37.0,30.35,South,180,11.0,11.0,44,0.00,,,0.00,TxWx,2013-04-26 16:35:00,
2013-04-26 12:41:00,59.0,37.0,30.35,SSW,202,14.0,14.0,45,0.00,,,0.00,TxWx,2013-04-26 16:41:00,
2013-04-26 12:46:00,58.0,36.0,30.34,South,180,6.0,6.0,44,0.00,,,0.00,TxWx,2013-04-26 16:46:00,
2013-04-26 12:51:00,59.0,36.0,30.34,ESE,112,5.0,5.0,43,0.00,,,0.00,TxWx,2013-04-26 16:51:00,
2013-04-26 12:56:00,59.0,36.0,30.34,South,180,9.0,10.0,43,0.00,,,0.00,TxWx,2013-04-26 16:56:00,
2013-04-26 13:01:00,58.0,35.0,30.34,South,180,3.0,5.0,43,0.00,,,0.00,TxWx,2013-04-26 17:01:00,
2013-04-26 13:06:00,59.0,36.0,30.34,South,180,5.0,6.0,43,0.00,,,0.00,TxWx,2013-04-26 17:06:00,
2013-04-26 13:11:00,59.0,36.0,30.33,South,180,13.0,13.0,42,0.00,,,0.00,TxWx,2013-04-26 17:11:00,
2013-04-26 13:17:00,60.0,36.0,30.34,SSE,157,6.0,9.0,41,0.00,,,0.00,TxWx,2013-04-26 17:17:00,
2013-04-26 13:22:00,59.0,34.0,30.34,South,180,12.0,13.0,40,0.00,,,0.00,TxWx,2013-04-26 17:22:00,
2013-04-26 13:27:00,59.0,34.0,30.33,SSW,202,5.0,6.0,40,0.00,,,0.00,TxWx,2013-04-26 17:27:00,
2013-04-26 13:32:00,60.0,35.0,30.33,SSW,202,11.0,11.0,39,0.00,,,0.00,TxWx,2013-04-26 17:32:00,
2013-04-26 13:37:00,60.0,34.0,30.33,South,180,9.0,10.0,38,0.00,,,0.00,TxWx,2013-04-26 17:37:00,
2013-04-26 13:42:00,60.0,34.0,30.33,SSW,202,11.0,13.0,37,0.00,,,0.00,TxWx,2013-04-26 17:42:00,
2013-04-26 13:47:00,60.0,34.0,30.33,East,90,10.0,10.0,37,0.00,,,0.00,TxWx,2013-04-26 17:47:00,
2013-04-26 13:53:00,61.0,34.0,30.32,SSE,157,8.0,10.0,37,0.00,,,0.00,TxWx,2013-04-26 17:53:00,
2013-04-26 13:58:00,60.0,33.0,30.33,SSE,157,6.0,8.0,36,0.00,,,0.00,TxWx,2013-04-26 17:58:00,
2013-04-26 14:03:00,61.0,33.0,30.32,SSE,157,8.0,12.0,36,0.00,,,0.00,TxWx,2013-04-26 18:03:00,
2013-04-26 14:08:00,61.0,33.0,30.33,SSW,202,8.0,14.0,35,0.00,,,0.00,TxWx,2013-04-26 18:08:00,
2013-04-26 14:13:00,61.0,33.0,30.33,SSE,157,11.0,11.0,35,0.00,,,0.00,TxWx,2013-04-26 18:13:00,
2013-04-26 14:19:00,61.0,33.0,30.33,SE,135,8.0,11.0,35,0.00,,,0.00,TxWx,2013-04-26 18:19:00,
2013-04-26 14:24:00,61.0,33.0,30.33,WSW,247,11.0,11.0,35,0.00,,,0.00,TxWx,2013-04-26 18:24:00,
2013-04-26 14:29:00,61.0,33.0,30.32,SSE,157,11.0,13.0,35,0.00,,,0.00,TxWx,2013-04-26 18:29:00,
2013-04-26 14:34:00,61.0,33.0,30.32,SSW,202,5.0,6.0,35,0.00,,,0.00,TxWx,2013-04-26 18:34:00,
2013-04-26 14:39:00,62.0,34.0,30.32,SSE,157,10.0,11.0,35,0.00,,,0.00,TxWx,2013-04-26 18:39:00,
2013-04-26 14:44:00,62.0,34.0,30.32,SSE,157,9.0,9.0,35,0.00,,,0.00,TxWx,2013-04-26 18:44:00,
2013-04-26 14:49:00,62.0,34.0,30.32,SSE,157,10.0,12.0,35,0.00,,,0.00,TxWx,2013-04-26 18:49:00,
2013-04-26 14:55:00,62.0,34.0,30.32,SSW,202,5.0,7.0,35,0.00,,,0.00,TxWx,2013-04-26 18:55:00,
2013-04-26 15:00:00,62.0,34.0,30.32,SSE,157,8.0,8.0,35,0.00,,,0.00,TxWx,2013-04-26 19:00:00,
2013-04-26 15:01:00,48.0,31.0,30.39,East,90,0.0,0.0,53,0.00,,,0.00,TxWx,2013-04-26 19:01:00,
2013-04-26 15:02:00,48.0,31.0,30.39,SE,135,0.0,0.0,53,0.00,,,0.00,TxWx,2013-04-26 19:02:00,
2013-04-26 15:03:00,48.0,31.0,30.39,East,90,1.0,1.0,53,0.00,,,0.00,TxWx,2013-04-26 19:03:00,
2013-04-26 15:04:00,48.0,31.0,30.39,ENE,67,1.0,1.0,53,0.00,,,0.00,TxWx,2013-04-26 19:04:00,
2013-04-26 15:05:00,62.0,34.0,30.32,West,270,3.0,10.0,35,0.00,,,0.00,TxWx,2013-04-26 19:05:00,
2013-04-26 15:06:00,47.0,30.0,30.39,SE,135,0.0,1.0,54,0.00,,,0.00,TxWx,2013-04-26 19:06:00,
2013-04-26 15:07:00,47.0,30.0,30.39,West,270,0.0,1.0,54,0.00,,,0.00,TxWx,2013-04-26 19:07:00,
2013-04-26 15:08:00,47.0,30.0,30.39,West,270,0.0,1.0,54,0.00,,,0.00,TxWx,2013-04-26 19:08:00,
2013-04-26 15:09:00,47.0,30.0,30.39,SSE,157,1.0,1.0,55,0.00,,,0.00,TxWx,2013-04-26 19:09:00,
2013-04-26 15:10:00,62.0,33.0,30.32,SSE,157,7.0,8.0,33,0.00,,,0.00,TxWx,2013-04-26 19:10:00,
2013-04-26 15:11:00,47.0,30.0,30.39,SSW,202,1.0,1.0,55,0.00,,,0.00,TxWx,2013-04-26 19:11:00,
2013-04-26 15:12:00,47.0,30.0,30.39,South,180,0.0,0.0,55,0.00,,,0.00,TxWx,2013-04-26 19:12:00,
2013-04-26 15:13:00,47.0,30.0,30.39,NE,45,0.0,0.0,55,0.00,,,0.00,TxWx,2013-04-26 19:13:00,
2013-04-26 15:14:00,47.0,30.0,30.39,South,180,0.0,0.0,55,0.00,,,0.00,TxWx,2013-04-26 19:14:00,
2013-04-26 15:15:00,47.0,30.0,30.39,SSW,202,0.0,1.0,55,0.00,,,0.00,TxWx,2013-04-26 19:15:00,
2013-04-26 15:16:00,62.0,33.0,30.32,SSE,157,9.0,10.0,33,0.00,,,0.00,TxWx,2013-04-26 19:16:00,
2013-04-26 15:17:00,46.0,30.0,30.39,South,180,0.0,0.0,55,0.00,,,0.00,TxWx,2013-04-26 19:17:00,
2013-04-26 15:18:00,46.0,30.0,30.39,South,180,0.0,1.0,55,0.00,,,0.00,TxWx,2013-04-26 19:18:00,
2013-04-26 15:19:00,46.0,30.0,30.39,South,180,1.0,1.0,55,0.00,,,0.00,TxWx,2013-04-26 19:19:00,
2013-04-26 15:20:00,46.0,30.0,30.39,SSW,202,1.0,1.0,56,0.00,,,0.00,TxWx,2013-04-26 19:20:00,
2013-04-26 15:21:00,62.0,33.0,30.32,SW,225,5.0,5.0,34,0.00,,,0.00,TxWx,2013-04-26 19:21:00,
2013-04-26 15:22:00,46.0,30.0,30.39,SE,135,1.0,1.0,56,0.00,,,0.00,TxWx,2013-04-26 19:22:00,
2013-04-26 15:23:00,46.0,30.0,30.39,South,180,1.0,1.0,56,0.00,,,0.00,TxWx,2013-04-26 19:23:00,
2013-04-26 15:24:00,46.0,30.0,30.39,SSW,202,1.0,1.0,56,0.00,,,0.00,TxWx,2013-04-26 19:24:00,
2013-04-26 15:25:00,46.0,30.0,30.39,SW,225,1.0,1.0,56,0.00,,,0.00,TxWx,2013-04-26 19:25:00,
2013-04-26 15:26:00,63.0,33.0,30.32,SSE,157,8.0,11.0,33,0.00,,,0.00,TxWx,2013-04-26 19:26:00,
2013-04-26 15:27:00,46.0,30.0,30.39,SW,225,0.0,0.0,57,0.00,,,0.00,TxWx,2013-04-26 19:27:00,
2013-04-26 15:28:00,46.0,30.0,30.39,SW,225,0.0,0.0,57,0.00,,,0.00,TxWx,2013-04-26 19:28:00,
2013-04-26 15:29:00,46.0,30.0,30.39,NE,45,1.0,1.0,57,0.00,,,0.00,TxWx,2013-04-26 19:29:00,
2013-04-26 15:30:00,45.0,30.0,30.39,NNE,22,1.0,1.0,57,0.00,,,0.00,TxWx,2013-04-26 19:30:00,
2013-04-26 15:31:00,45.0,30.0,30.39,NE,45,0.0,0.0,57,0.00,,,0.00,TxWx,2013-04-26 19:31:00,
2013-04-26 15:32:00,62.0,33.0,30.32,SE,135,11.0,11.0,33,0.00,,,0.00,TxWx,2013-04-26 19:32:00,
2013-04-26 15:33:00,45.0,30.0,30.39,North,0,0.0,0.0,57,0.00,,,0.00,TxWx,2013-04-26 19:33:00,
2013-04-26 15:34:00,45.0,30.0,30.39,NE,45,0.0,1.0,58,0.00,,,0.00,TxWx,2013-04-26 19:34:00,
2013-04-26 15:35:00,45.0,30.0,30.39,NE,45,1.0,1.0,58,0.00,,,0.00,TxWx,2013-04-26 19:35:00,
2013-04-26 15:36:00,45.0,30.0,30.39,NE,45,1.0,1.0,58,0.00,,,0.00,TxWx,2013-04-26 19:36:00,
2013-04-26 15:37:00,62.0,33.0,30.32,SE,135,8.0,10.0,33,0.00,,,0.00,TxWx,2013-04-26 19:37:00,
2013-04-26 15:38:00,45.0,30.0,30.39,East,90,0.0,0.0,58,0.00,,,0.00,TxWx,2013-04-26 19:38:00,
2013-04-26 15:39:00,45.0,30.0,30.39,ENE,67,0.0,0.0,58,0.00,,,0.00,TxWx,2013-04-26 19:39:00,
2013-04-26 15:40:00,45.0,30.0,30.39,NE,45,1.0,1.0,58,0.00,,,0.00,TxWx,2013-04-26 19:40:00,
2013-04-26 15:41:00,45.0,30.0,30.39,ESE,112,0.0,0.0,58,0.00,,,0.00,TxWx,2013-04-26 19:41:00,
2013-04-26 15:42:00,63.0,33.0,30.31,SSE,157,13.0,14.0,33,0.00,,,0.00,TxWx,2013-04-26 19:42:00,
2013-04-26 15:43:00,45.0,30.0,30.39,East,90,0.0,0.0,58,0.00,,,0.00,TxWx,2013-04-26 19:43:00,
2013-04-26 15:44:00,45.0,30.0,30.39,East,90,1.0,1.0,59,0.00,,,0.00,TxWx,2013-04-26 19:44:00,
2013-04-26 15:45:00,45.0,30.0,30.39,South,180,0.0,0.0,59,0.00,,,0.00,TxWx,2013-04-26 19:45:00,
2013-04-26 15:46:00,45.0,30.0,30.39,SSW,202,1.0,1.0,59,0.00,,,0.00,TxWx,2013-04-26 19:46:00,
2013-04-26 15:47:00,62.0,33.0,30.31,SE,135,10.0,11.0,33,0.00,,,0.00,TxWx,2013-04-26 19:47:00,
2013-04-26 15:49:00,45.0,30.0,30.39,South,180,1.0,1.0,59,0.00,,,0.00,TxWx,2013-04-26 19:49:00,
2013-04-26 15:51:00,45.0,31.0,30.39,SW,225,1.0,2.0,59,0.00,,,0.00,TxWx,2013-04-26 19:51:00,
2013-04-26 15:52:00,45.0,31.0,30.39,SSW,202,0.0,1.0,59,0.00,,,0.00,TxWx,2013-04-26 19:52:00,
2013-04-26 15:53:00,62.0,33.0,30.32,SE,135,13.0,16.0,34,0.00,,,0.00,TxWx,2013-04-26 19:53:00,
2013-04-26 15:56:00,45.0,31.0,30.39,South,180,0.0,1.0,59,0.00,,,0.00,TxWx,2013-04-26 19:56:00,
2013-04-26 15:57:00,45.0,31.0,30.39,East,90,1.0,1.0,59,0.00,,,0.00,TxWx,2013-04-26 19:57:00,
2013-04-26 15:58:00,62.0,33.0,30.31,ESE,112,13.0,15.0,34,0.00,,,0.00,TxWx,2013-04-26 19:58:00,
2013-04-26 16:03:00,62.0,33.0,30.32,SE,135,8.0,11.0,34,0.00,,,0.00,TxWx,2013-04-26 20:03:00,
2013-04-26 16:08:00,62.0,33.0,30.32,South,180,8.0,10.0,34,0.00,,,0.00,TxWx,2013-04-26 20:08:00,
2013-04-26 16:13:00,62.0,33.0,30.31,South,180,8.0,10.0,34,0.00,,,0.00,TxWx,2013-04-26 20:13:00,
2013-04-26 16:19:00,63.0,34.0,30.31,ESE,112,6.0,10.0,34,0.00,,,0.00,TxWx,2013-04-26 20:19:00,
2013-04-26 16:24:00,62.0,33.0,30.32,SSE,157,10.0,13.0,34,0.00,,,0.00,TxWx,2013-04-26 20:24:00,
2013-04-26 16:29:00,62.0,33.0,30.32,SSW,202,8.0,9.0,34,0.00,,,0.00,TxWx,2013-04-26 20:29:00,
2013-04-26 16:34:00,62.0,33.0,30.32,SSE,157,15.0,15.0,34,0.00,,,0.00,TxWx,2013-04-26 20:34:00,
2013-04-26 16:39:00,62.0,33.0,30.31,South,180,13.0,13.0,34,0.00,,,0.00,TxWx,2013-04-26 20:39:00,
2013-04-26 16:45:00,62.0,33.0,30.32,SSE,157,10.0,10.0,34,0.00,,,0.00,TxWx,2013-04-26 20:45:00,
2013-04-26 16:50:00,62.0,33.0,30.32,South,180,15.0,16.0,34,0.00,,,0.00,TxWx,2013-04-26 20:50:00,
2013-04-26 16:55:00,62.0,33.0,30.32,South,180,11.0,19.0,34,0.00,,,0.00,TxWx,2013-04-26 20:55:00,
2013-04-26 17:00:00,62.0,33.0,30.32,SE,135,9.0,13.0,34,0.00,,,0.00,TxWx,2013-04-26 21:00:00,
2013-04-26 17:05:00,62.0,33.0,30.31,SE,135,11.0,13.0,34,0.00,,,0.00,TxWx,2013-04-26 21:05:00,
2013-04-26 17:11:00,62.0,34.0,30.31,SSE,157,8.0,8.0,35,0.00,,,0.00,TxWx,2013-04-26 21:11:00,
2013-04-26 17:16:00,63.0,34.0,30.32,SE,135,11.0,15.0,34,0.00,,,0.00,TxWx,2013-04-26 21:16:00,
2013-04-26 17:21:00,62.0,33.0,30.31,South,180,17.0,18.0,34,0.00,,,0.00,TxWx,2013-04-26 21:21:00,
2013-04-26 17:26:00,62.0,34.0,30.32,NNE,22,5.0,5.0,35,0.00,,,0.00,TxWx,2013-04-26 21:26:00,
2013-04-26 17:31:00,63.0,34.0,30.32,SE,135,10.0,10.0,35,0.00,,,0.00,TxWx,2013-04-26 21:31:00,
2013-04-26 17:36:00,63.0,34.0,30.32,SE,135,13.0,13.0,35,0.00,,,0.00,TxWx,2013-04-26 21:36:00,
2013-04-26 17:42:00,62.0,34.0,30.33,WSW,247,3.0,6.0,35,0.00,,,0.00,TxWx,2013-04-26 21:42:00,
2013-04-26 17:47:00,62.0,34.0,30.33,SE,135,10.0,10.0,35,0.00,,,0.00,TxWx,2013-04-26 21:47:00,
2013-04-26 17:52:00,62.0,34.0,30.33,ESE,112,6.0,6.0,35,0.00,,,0.00,TxWx,2013-04-26 21:52:00,
2013-04-26 17:57:00,62.0,34.0,30.33,SE,135,8.0,9.0,35,0.00,,,0.00,TxWx,2013-04-26 21:57:00,
2013-04-26 18:02:00,62.0,34.0,30.33,SE,135,5.0,8.0,35,0.00,,,0.00,TxWx,2013-04-26 22:02:00,
2013-04-26 18:07:00,62.0,34.0,30.33,SSE,157,5.0,8.0,35,0.00,,,0.00,TxWx,2013-04-26 22:07:00,
2013-04-26 18:12:00,61.0,33.0,30.34,SSE,157,6.0,11.0,35,0.00,,,0.00,TxWx,2013-04-26 22:12:00,
2013-04-26 18:18:00,61.0,33.0,30.34,SE,135,6.0,8.0,36,0.00,,,0.00,TxWx,2013-04-26 22:18:00,
2013-04-26 18:23:00,61.0,34.0,30.34,SE,135,7.0,8.0,36,0.00,,,0.00,TxWx,2013-04-26 22:23:00,
2013-04-26 18:28:00,61.0,33.0,30.34,SSE,157,5.0,8.0,36,0.00,,,0.00,TxWx,2013-04-26 22:28:00,
2013-04-26 18:33:00,61.0,33.0,30.34,SE,135,4.0,5.0,36,0.00,,,0.00,TxWx,2013-04-26 22:33:00,
2013-04-26 18:39:00,60.0,33.0,30.34,SSW,202,10.0,13.0,36,0.00,,,0.00,TxWx,2013-04-26 22:39:00,
2013-04-26 18:44:00,60.0,33.0,30.34,South,180,11.0,11.0,36,0.00,,,0.00,TxWx,2013-04-26 22:44:00,
2013-04-26 18:49:00,60.0,33.0,30.35,SSE,157,8.0,10.0,36,0.00,,,0.00,TxWx,2013-04-26 22:49:00,
2013-04-26 18:54:00,59.0,32.0,30.35,SSW,202,6.0,9.0,36,0.00,,,0.00,TxWx,2013-04-26 22:54:00,
2013-04-26 18:59:00,59.0,32.0,30.35,SSW,202,8.0,11.0,36,0.00,,,0.00,TxWx,2013-04-26 22:59:00,
2013-04-26 19:05:00,59.0,32.0,30.35,SSE,157,6.0,7.0,37,0.00,,,0.00,TxWx,2013-04-26 23:05:00,
2013-04-26 19:10:00,59.0,32.0,30.35,South,180,6.0,11.0,37,0.00,,,0.00,TxWx,2013-04-26 23:10:00,
2013-04-26 19:15:00,58.0,30.0,30.36,SE,135,8.0,10.0,37,0.00,,,0.00,TxWx,2013-04-26 23:15:00,
2013-04-26 19:20:00,58.0,30.0,30.36,South,180,8.0,11.0,37,0.00,,,0.00,TxWx,2013-04-26 23:20:00,
2013-04-26 19:26:00,58.0,30.0,30.36,SSW,202,10.0,11.0,36,0.00,,,0.00,TxWx,2013-04-26 23:26:00,
2013-04-26 19:31:00,58.0,30.0,30.36,SSE,157,9.0,13.0,37,0.00,,,0.00,TxWx,2013-04-26 23:31:00,
2013-04-26 19:36:00,57.0,30.0,30.36,SSE,157,8.0,12.0,37,0.00,,,0.00,TxWx,2013-04-26 23:36:00,
2013-04-26 19:42:00,57.0,30.0,30.36,SSE,157,6.0,6.0,37,0.00,,,0.00,TxWx,2013-04-26 23:42:00,
2013-04-26 19:47:00,57.0,30.0,30.36,SE,135,5.0,7.0,37,0.00,,,0.00,TxWx,2013-04-26 23:47:00,
2013-04-26 19:52:00,57.0,30.0,30.37,SSE,157,5.0,6.0,37,0.00,,,0.00,TxWx,2013-04-26 23:52:00,
2013-04-26 20:05:00,56.0,30.0,30.37,South,180,5.0,5.0,38,0.00,,,0.00,TxWx,2013-04-27 00:05:00,
2013-04-26 20:10:00,56.0,30.0,30.37,SE,135,6.0,7.0,39,0.00,,,0.00,TxWx,2013-04-27 00:10:00,
2013-04-26 20:16:00,56.0,30.0,30.37,West,270,3.0,6.0,39,0.00,,,0.00,TxWx,2013-04-27 00:16:00,
2013-04-26 20:21:00,56.0,30.0,30.37,South,180,6.0,6.0,39,0.00,,,0.00,TxWx,2013-04-27 00:21:00,
2013-04-26 20:26:00,56.0,30.0,30.37,South,180,4.0,6.0,39,0.00,,,0.00,TxWx,2013-04-27 00:26:00,
2013-04-26 20:31:00,56.0,30.0,30.37,SE,135,6.0,8.0,38,0.00,,,0.00,TxWx,2013-04-27 00:31:00,
2013-04-26 20:37:00,56.0,30.0,30.37,East,90,8.0,10.0,38,0.00,,,0.00,TxWx,2013-04-27 00:37:00,
2013-04-26 20:42:00,55.0,29.0,30.38,South,180,7.0,8.0,38,0.00,,,0.00,TxWx,2013-04-27 00:42:00,
2013-04-26 20:47:00,55.0,29.0,30.38,SE,135,5.0,6.0,38,0.00,,,0.00,TxWx,2013-04-27 00:47:00,
2013-04-26 20:53:00,55.0,29.0,30.38,SE,135,6.0,6.0,39,0.00,,,0.00,TxWx,2013-04-27 00:53:00,
2013-04-26 20:58:00,55.0,29.0,30.38,SE,135,5.0,6.0,39,0.00,,,0.00,TxWx,2013-04-27 00:58:00,
2013-04-26 21:03:00,55.0,29.0,30.38,SE,135,5.0,6.0,39,0.00,,,0.00,TxWx,2013-04-27 01:03:00,
2013-04-26 21:08:00,55.0,29.0,30.38,SE,135,5.0,6.0,39,0.00,,,0.00,TxWx,2013-04-27 01:08:00,
2013-04-26 21:14:00,55.0,30.0,30.38,SE,135,5.0,6.0,40,0.00,,,0.00,TxWx,2013-04-27 01:14:00,
2013-04-26 21:19:00,55.0,29.0,30.38,SE,135,3.0,5.0,39,0.00,,,0.00,TxWx,2013-04-27 01:19:00,
2013-04-26 21:25:00,55.0,30.0,30.38,SSE,157,5.0,6.0,40,0.00,,,0.00,TxWx,2013-04-27 01:25:00,
2013-04-26 21:30:00,55.0,29.0,30.38,ESE,112,3.0,5.0,39,0.00,,,0.00,TxWx,2013-04-27 01:30:00,
2013-04-26 21:35:00,55.0,29.0,30.38,SSE,157,5.0,5.0,39,0.00,,,0.00,TxWx,2013-04-27 01:35:00,
2013-04-26 21:40:00,54.0,29.0,30.38,East,90,3.0,3.0,41,0.00,,,0.00,TxWx,2013-04-27 01:40:00,
2013-04-26 21:45:00,54.0,29.0,30.39,ESE,112,4.0,4.0,41,0.00,,,0.00,TxWx,2013-04-27 01:45:00,
2013-04-26 21:50:00,54.0,30.0,30.39,ESE,112,3.0,4.0,42,0.00,,,0.00,TxWx,2013-04-27 01:50:00,
2013-04-26 21:56:00,53.0,30.0,30.39,ESE,112,3.0,3.0,43,0.00,,,0.00,TxWx,2013-04-27 01:56:00,
2013-04-26 22:01:00,53.0,30.0,30.39,SE,135,1.0,2.0,44,0.00,,,0.00,TxWx,2013-04-27 02:01:00,
2013-04-26 22:06:00,53.0,30.0,30.39,East,90,1.0,1.0,43,0.00,,,0.00,TxWx,2013-04-27 02:06:00,
2013-04-26 22:11:00,53.0,30.0,30.39,South,180,0.0,1.0,43,0.00,,,0.00,TxWx,2013-04-27 02:11:00,
2013-04-26 22:17:00,52.0,29.0,30.39,WSW,247,1.0,1.0,43,0.00,,,0.00,TxWx,2013-04-27 02:17:00,
2013-04-26 22:22:00,52.0,29.0,30.39,NNE,22,0.0,0.0,43,0.00,,,0.00,TxWx,2013-04-27 02:22:00,
2013-04-26 22:27:00,51.0,29.0,30.39,ENE,67,1.0,1.0,44,0.00,,,0.00,TxWx,2013-04-27 02:27:00,
2013-04-26 22:32:00,51.0,29.0,30.39,ENE,67,0.0,0.0,45,0.00,,,0.00,TxWx,2013-04-27 02:32:00,
2013-04-26 22:37:00,50.0,30.0,30.39,East,90,0.0,1.0,47,0.00,,,0.00,TxWx,2013-04-27 02:37:00,
2013-04-26 22:43:00,49.0,30.0,30.39,SE,135,1.0,1.0,50,0.00,,,0.00,TxWx,2013-04-27 02:43:00,
2013-04-26 22:48:00,49.0,30.0,30.39,West,270,0.0,0.0,50,0.00,,,0.00,TxWx,2013-04-27 02:48:00,
2013-04-26 22:54:00,49.0,30.0,30.39,SE,135,0.0,0.0,50,0.00,,,0.00,TxWx,2013-04-27 02:54:00,
2013-04-26 22:59:00,49.0,30.0,30.39,SSW,202,2.0,2.0,50,0.00,,,0.00,TxWx,2013-04-27 02:59:00,
2013-04-26 23:04:00,50.0,31.0,30.38,SSE,157,0.0,1.0,49,0.00,,,0.00,TxWx,2013-04-27 03:04:00,
2013-04-26 23:09:00,50.0,31.0,30.38,SE,135,0.0,1.0,49,0.00,,,0.00,TxWx,2013-04-27 03:09:00,
2013-04-26 23:14:00,50.0,30.0,30.38,South,180,1.0,3.0,49,0.00,,,0.00,TxWx,2013-04-27 03:14:00,
2013-04-26 23:20:00,50.0,32.0,30.39,ENE,67,1.0,2.0,50,0.00,,,0.00,TxWx,2013-04-27 03:20:00,
2013-04-26 23:25:00,49.0,30.0,30.38,SE,135,3.0,3.0,50,0.00,,,0.00,TxWx,2013-04-27 03:25:00,
2013-04-26 23:30:00,49.0,30.0,30.39,SE,135,0.0,1.0,50,0.00,,,0.00,TxWx,2013-04-27 03:30:00,
2013-04-26 23:36:00,50.0,31.0,30.39,South,180,2.0,3.0,49,0.00,,,0.00,TxWx,2013-04-27 03:36:00,
2013-04-26 23:41:00,49.0,30.0,30.39,South,180,1.0,2.0,50,0.00,,,0.00,TxWx,2013-04-27 03:41:00,
2013-04-26 23:46:00,49.0,30.0,30.39,SSE,157,2.0,2.0,50,0.00,,,0.00,TxWx,2013-04-27 03:46:00,
2013-04-26 23:51:00,49.0,31.0,30.39,SE,135,2.0,2.0,52,0.00,,,0.00,TxWx,2013-04-27 03:51:00,
2013-04-26 23:56:00,48.0,30.0,30.39,South,180,0.0,1.0,53,0.00,,,0.00,TxWx,2013-04-27 03:56:00,